Kulusuk

KL  EN  DA
ASIAQ
Weather Now GREENLAND SURVEY
Updated [WGT/WGST] Temperature [°C] Wind [m/s] Air pressure [hPa] Relative humidity [%] Precipitation [mm]
Present Wind chill Speed Max
21.01 19:00-6,5-10,82,6 ⇗3,2983690,0
21.01 18:00-5,4-9,52,6 ⇗3,4984710,0
21.01 17:00-4,4-8,93,1 ⇗3,6985700,0
21.01 16:00-4,6-7,21,6 ⇗2,2985700,0
21.01 15:00-5,9-10,32,7 ⇒3,498575-0,1
21.01 14:00-4,90,01,2 ⇗1,8984640,0
21.01 13:00-5,20,01,3 ⇗2,0984690,0
21.01 12:00-5,4-9,32,4 ⇒3,0983740,0
21.01 11:00-5,0-8,62,2 ⇒2,8982730,0
21.01 10:00-4,3-9,84,3 ⇑9,6981560,0
21.01 09:00-5,30,01,0 ⇑1,8980540,0
21.01 08:00-4,6-7,82,0 ⇒3,0979490,0
21.01 07:00-3,9-6,51,7 ⇒2,4978420,0
21.01 06:00-4,8-7,91,9 ⇒2,6978470,0
21.01 05:00-4,3-7,72,2 ⇓4,3977440,0
21.01 04:00-5,3-11,14,4 ⇓6,2977530,0
21.01 03:00-4,8-10,44,3 ⇘5,4977450,0
21.01 02:00-4,9-9,32,9 ⇘4,3977470,0
21.01 01:00-4,3-6,71,5 ⇓3,6977420,0
21.01 00:00-5,4-9,72,7 ⇘6,2978480,0
20.01 23:00-6,3-10,62,6 ⇓4,7978560,0
20.01 22:00-6,8-11,93,2 ⇘5,4978570,0
20.01 21:00-7,4-13,54,1 ⇒5,0979640,0
20.01 20:00-7,5-12,93,4 ⇒4,6979660,0
20.01 19:00-9,7-14,12,2 ⇒3,4980740,0
Position: (65.583333,-37.15)

[Back]